createdAt,value
2023-09-04T00:00:20.083Z,35.50
2023-09-04T00:02:47.042Z,35.00
2023-09-04T00:05:13.972Z,35.00
2023-09-04T00:07:40.858Z,35.00
2023-09-04T00:10:08.006Z,33.25
2023-09-04T00:12:34.925Z,35.75
2023-09-04T00:15:01.877Z,36.00
2023-09-04T00:17:28.905Z,37.00
2023-09-04T00:19:55.955Z,36.00
2023-09-04T00:22:23.489Z,35.00
2023-09-04T00:24:50.532Z,36.00
2023-09-04T00:27:17.473Z,35.00
2023-09-04T00:29:44.631Z,37.00
2023-09-04T00:32:11.570Z,35.50
2023-09-04T00:34:38.515Z,35.00
2023-09-04T00:37:05.437Z,34.00
2023-09-04T00:39:32.488Z,34.75
2023-09-04T00:41:59.362Z,36.50
2023-09-04T00:44:26.237Z,35.00
2023-09-04T00:46:53.169Z,36.00
2023-09-04T00:49:21.220Z,37.00
2023-09-04T00:51:49.567Z,36.00
2023-09-04T00:54:18.094Z,36.00
2023-09-04T00:56:45.059Z,36.00
2023-09-04T00:59:11.984Z,35.00
2023-09-04T01:01:39.310Z,33.00
2023-09-04T01:04:06.409Z,33.00
2023-09-04T01:06:33.377Z,33.00
2023-09-04T01:09:00.395Z,32.00
2023-09-04T01:11:43.601Z,32.00
2023-09-04T01:14:19.403Z,33.00
2023-09-04T01:16:48.183Z,33.00
2023-09-04T01:19:15.581Z,32.00
2023-09-04T01:21:42.844Z,32.00
2023-09-04T01:24:09.812Z,32.00
2023-09-04T01:26:49.248Z,32.00
2023-09-04T01:29:54.647Z,33.00
2023-09-04T01:32:29.368Z,35.00
2023-09-04T01:34:58.331Z,33.00
2023-09-04T01:37:26.147Z,32.50
2023-09-04T01:39:54.720Z,32.00
2023-09-04T01:42:21.706Z,31.00
2023-09-04T01:44:48.718Z,30.00
2023-09-04T01:47:15.666Z,31.00
2023-09-04T01:49:42.614Z,31.00
2023-09-04T01:52:09.639Z,30.00
2023-09-04T01:54:37.672Z,29.00
2023-09-04T01:57:05.533Z,29.00
2023-09-04T01:59:32.779Z,27.00
2023-09-04T02:02:00.059Z,27.00
2023-09-04T02:04:27.124Z,26.00
2023-09-04T02:06:53.983Z,28.00
2023-09-04T02:09:20.885Z,29.00
2023-09-04T02:11:47.757Z,28.50
2023-09-04T02:14:14.720Z,27.00
2023-09-04T02:16:43.563Z,28.00
2023-09-04T02:19:11.363Z,28.00
2023-09-04T02:21:38.215Z,28.25
2023-09-04T02:24:05.491Z,29.00
2023-09-04T02:26:33.672Z,28.00
2023-09-04T02:29:01.767Z,28.00
2023-09-04T02:31:28.726Z,28.50
2023-09-04T02:33:55.749Z,28.00
2023-09-04T02:36:22.653Z,28.00
2023-09-04T02:38:51.054Z,28.50
2023-09-04T02:41:17.897Z,27.00
2023-09-04T02:43:44.941Z,28.00
2023-09-04T02:46:12.241Z,29.00
2023-09-04T02:48:39.222Z,28.00
2023-09-04T02:51:06.256Z,28.00
2023-09-04T02:53:33.220Z,28.00
2023-09-04T02:56:00.221Z,27.00
2023-09-04T02:58:27.267Z,28.00
2023-09-04T03:00:54.446Z,28.50
2023-09-04T03:03:21.544Z,29.00
2023-09-04T03:05:48.538Z,30.00
2023-09-04T03:08:16.009Z,29.00
2023-09-04T03:10:42.988Z,28.00
2023-09-04T03:13:10.028Z,29.00
2023-09-04T03:15:37.862Z,29.00
2023-09-04T03:18:05.129Z,27.00
2023-09-04T03:20:32.165Z,26.25
2023-09-04T03:22:59.934Z,26.00
2023-09-04T03:25:26.845Z,28.00
2023-09-04T03:27:54.040Z,29.00
2023-09-04T03:30:22.742Z,28.50
2023-09-04T03:32:50.063Z,29.00
2023-09-04T03:35:17.088Z,27.00
2023-09-04T03:37:44.449Z,28.00
2023-09-04T03:40:22.000Z,27.00
2023-09-04T03:42:49.497Z,28.00
2023-09-04T03:45:16.447Z,34.50
2023-09-04T03:47:45.396Z,34.75
2023-09-04T03:50:12.746Z,30.00
2023-09-04T03:52:41.204Z,29.00
2023-09-04T03:55:11.036Z,29.00
2023-09-04T03:57:38.353Z,29.00
2023-09-04T04:00:05.843Z,29.25
2023-09-04T04:02:40.469Z,32.00
2023-09-04T04:05:09.964Z,30.00
2023-09-04T04:07:36.953Z,30.75
2023-09-04T04:10:04.154Z,31.00
2023-09-04T04:12:31.258Z,31.00
2023-09-04T04:15:02.996Z,31.50
2023-09-04T04:17:30.129Z,31.50
2023-09-04T04:19:57.066Z,32.00
2023-09-04T04:22:24.573Z,31.50
2023-09-04T04:24:51.855Z,30.00
2023-09-04T04:27:19.237Z,29.00
2023-09-04T04:29:47.077Z,30.00
2023-09-04T04:32:15.613Z,29.00
2023-09-04T04:34:44.089Z,30.00
2023-09-04T04:37:13.040Z,29.25
2023-09-04T04:39:40.205Z,30.00
2023-09-04T04:42:07.445Z,30.00
2023-09-04T04:44:34.415Z,30.00
2023-09-04T06:45:03.348Z,34.00
2023-09-04T06:47:30.316Z,34.00
2023-09-04T06:49:57.244Z,32.00
2023-09-04T06:52:24.185Z,32.50
2023-09-04T06:54:51.153Z,34.00
2023-09-04T06:57:18.106Z,35.00
2023-09-04T06:59:45.033Z,34.50
2023-09-04T07:02:12.034Z,34.50
2023-09-04T07:04:39.048Z,36.00
2023-09-04T07:07:05.999Z,36.00
2023-09-04T07:09:32.904Z,34.00
2023-09-04T07:11:59.910Z,34.00
2023-09-04T07:14:26.790Z,34.00
2023-09-04T07:17:07.471Z,32.00
2023-09-04T07:19:35.163Z,32.00
2023-09-04T07:22:02.102Z,31.00
2023-09-04T07:24:29.079Z,30.00
2023-09-04T07:26:55.992Z,29.00
2023-09-04T07:29:23.017Z,31.00
2023-09-04T07:31:49.995Z,31.50
2023-09-04T07:34:17.005Z,32.00
2023-09-04T07:36:44.022Z,31.00
2023-09-04T07:39:10.959Z,31.00
2023-09-04T07:41:37.974Z,31.00
2023-09-04T07:44:05.224Z,32.50
2023-09-04T07:46:32.117Z,33.00
2023-09-04T07:48:59.049Z,31.00
2023-09-04T07:51:34.968Z,30.00
2023-09-04T07:54:04.241Z,31.00
2023-09-04T07:56:41.113Z,31.00
2023-09-04T07:59:10.015Z,32.50
2023-09-04T08:01:37.055Z,32.00
2023-09-04T08:04:04.517Z,33.00
2023-09-04T08:06:31.481Z,33.75
2023-09-04T08:08:58.538Z,33.00
2023-09-04T08:11:25.694Z,33.00
2023-09-04T08:13:52.693Z,32.00
2023-09-04T08:16:19.720Z,33.00
2023-09-04T08:18:46.792Z,34.00
2023-09-04T08:21:13.706Z,34.00
2023-09-04T08:23:40.710Z,35.00
2023-09-04T08:26:07.633Z,33.00
2023-09-04T08:28:34.640Z,33.00
2023-09-04T08:31:01.750Z,32.00
2023-09-04T08:33:29.162Z,31.25
2023-09-04T08:35:58.416Z,34.00
2023-09-04T08:38:25.470Z,32.00
2023-09-04T08:40:52.721Z,31.00
2023-09-04T08:43:20.554Z,35.00
2023-09-04T08:45:48.844Z,35.00
2023-09-04T08:48:21.133Z,34.00
2023-09-04T08:50:50.447Z,33.75
2023-09-04T08:53:17.560Z,33.00
2023-09-04T08:55:44.784Z,33.00
2023-09-04T08:58:12.019Z,31.00
2023-09-04T09:00:39.855Z,31.00
2023-09-04T09:03:07.595Z,30.00
2023-09-04T09:05:35.518Z,31.00
2023-09-04T09:08:04.403Z,31.75
2023-09-04T09:10:31.442Z,33.00
2023-09-04T09:12:58.485Z,31.00
2023-09-04T09:15:26.670Z,32.00
2023-09-04T09:17:55.424Z,32.25
2023-09-04T09:20:33.729Z,33.00
2023-09-04T09:23:01.612Z,32.00
2023-09-04T09:25:28.939Z,31.00
2023-09-04T09:28:09.309Z,31.50
2023-09-04T09:30:39.444Z,32.50
2023-09-04T09:33:11.628Z,33.00
2023-09-04T09:35:40.614Z,31.00
2023-09-04T09:38:09.053Z,31.00
2023-09-04T09:40:36.275Z,32.00
2023-09-04T09:43:03.596Z,31.00
2023-09-04T09:45:34.902Z,32.00
2023-09-04T09:48:13.209Z,32.00
2023-09-04T09:50:42.129Z,31.00
2023-09-04T09:53:09.164Z,31.50
2023-09-04T09:55:36.631Z,32.25
2023-09-04T09:58:03.850Z,31.00
2023-09-04T10:00:30.882Z,31.00
2023-09-04T10:02:59.180Z,31.00
2023-09-04T10:05:29.835Z,31.00
2023-09-04T10:08:01.535Z,30.25
2023-09-04T10:10:31.667Z,30.75
2023-09-04T10:13:08.727Z,30.00
2023-09-04T10:15:39.179Z,31.00
2023-09-04T10:18:11.558Z,32.00
2023-09-04T10:20:42.164Z,30.00
2023-09-04T10:23:11.856Z,30.00
2023-09-04T10:25:54.303Z,32.00
2023-09-04T10:28:44.091Z,31.00
2023-09-04T10:31:12.443Z,31.00
2023-09-04T10:33:39.672Z,31.00
2023-09-04T10:36:07.040Z,31.00
2023-09-04T10:38:36.201Z,31.00
2023-09-04T10:41:05.505Z,31.00
2023-09-04T10:43:39.571Z,31.00
2023-09-04T10:46:08.497Z,32.00
2023-09-04T10:48:46.138Z,32.00
2023-09-04T10:51:39.117Z,31.50
2023-09-04T10:54:32.665Z,32.00
2023-09-04T10:57:02.450Z,31.00
2023-09-04T10:59:29.976Z,33.50
2023-09-04T11:01:57.063Z,31.00
2023-09-04T11:04:46.149Z,31.00
2023-09-04T11:07:21.916Z,32.00
2023-09-04T11:09:52.961Z,30.00
2023-09-04T11:12:21.674Z,29.50
2023-09-04T11:14:52.365Z,29.50
2023-09-04T11:17:22.934Z,29.00
2023-09-04T11:19:51.111Z,30.00
2023-09-04T11:22:22.784Z,31.00
2023-09-04T11:24:49.857Z,31.50
2023-09-04T11:27:16.895Z,32.25
2023-09-04T11:29:43.954Z,31.00
2023-09-04T11:32:11.144Z,33.00
2023-09-04T11:34:38.285Z,33.00
2023-09-04T11:37:06.274Z,31.25
2023-09-04T11:39:33.349Z,31.00
2023-09-04T11:42:01.895Z,31.00
2023-09-04T11:44:32.414Z,31.00
2023-09-04T11:47:00.325Z,29.50
2023-09-04T11:49:27.784Z,30.00
2023-09-04T11:51:54.769Z,29.00
2023-09-04T11:54:21.941Z,30.50
2023-09-04T11:56:48.860Z,31.00
2023-09-04T11:59:15.824Z,30.75
2023-09-04T12:01:42.795Z,31.00
2023-09-04T12:04:09.807Z,31.00
2023-09-04T12:06:36.839Z,31.00
2023-09-04T12:09:03.902Z,33.50
2023-09-04T12:11:31.441Z,34.25
2023-09-04T12:14:07.883Z,34.50
2023-09-04T12:16:34.959Z,35.25
2023-09-04T12:19:02.181Z,34.00
2023-09-04T12:21:29.269Z,33.50
2023-09-04T12:23:56.199Z,32.50
2023-09-04T12:26:23.212Z,32.00
2023-09-04T12:28:52.698Z,32.00
2023-09-04T12:31:20.135Z,32.00
2023-09-04T12:33:47.470Z,33.75
2023-09-04T12:36:16.411Z,33.00
2023-09-04T12:38:43.431Z,32.00
2023-09-04T12:41:10.532Z,33.00
2023-09-04T12:43:37.819Z,33.00
2023-09-04T12:46:05.023Z,32.75
2023-09-04T12:48:32.078Z,32.00
2023-09-04T12:50:59.256Z,31.00
2023-09-04T12:53:26.382Z,32.00
2023-09-04T12:55:53.484Z,32.00
2023-09-04T12:58:20.396Z,32.00
2023-09-04T13:00:47.627Z,34.00
2023-09-04T13:03:14.645Z,33.00
2023-09-04T13:05:41.775Z,32.50
2023-09-04T13:08:08.711Z,32.00
2023-09-04T13:10:35.687Z,32.00
2023-09-04T13:13:02.732Z,31.00
2023-09-04T13:15:30.186Z,30.00
2023-09-04T13:17:57.419Z,30.00
2023-09-04T13:20:24.721Z,29.00
2023-09-04T13:22:52.333Z,29.25
2023-09-04T13:25:19.357Z,29.00
2023-09-04T13:27:46.291Z,30.00
2023-09-04T13:30:13.421Z,30.00
2023-09-04T13:32:40.438Z,31.00
2023-09-04T13:35:08.002Z,32.00
2023-09-04T13:37:38.237Z,30.00
2023-09-04T13:40:06.137Z,30.00
2023-09-04T13:42:33.689Z,30.75
2023-09-04T13:45:00.996Z,32.00
2023-09-04T13:47:28.186Z,30.00
2023-09-04T13:49:56.126Z,31.75
2023-09-04T13:52:24.513Z,33.25
2023-09-04T13:54:52.704Z,32.00
2023-09-04T13:57:20.188Z,32.00
2023-09-04T13:59:47.193Z,32.00
2023-09-04T14:02:14.064Z,32.00
2023-09-04T14:04:41.073Z,32.00
2023-09-04T14:07:08.048Z,32.00
2023-09-04T14:09:35.987Z,31.50
2023-09-04T14:12:03.885Z,31.00
2023-09-04T14:14:31.361Z,30.00
2023-09-04T14:16:58.585Z,30.50
2023-09-04T14:19:25.513Z,32.00
2023-09-04T14:21:52.404Z,31.00
2023-09-04T14:24:19.386Z,30.00
2023-09-04T14:26:46.770Z,30.75
2023-09-04T14:29:14.542Z,31.00
2023-09-04T14:31:41.607Z,30.00
2023-09-04T14:34:08.922Z,32.00
2023-09-04T14:36:36.174Z,31.00
2023-09-04T14:39:03.403Z,32.00
2023-09-04T14:41:30.473Z,32.00
2023-09-04T14:43:57.521Z,30.00
2023-09-04T14:46:25.431Z,31.00
2023-09-04T14:48:54.006Z,31.00
2023-09-04T14:51:21.650Z,31.00
2023-09-04T14:53:56.345Z,31.50
2023-09-04T14:56:25.035Z,31.00
2023-09-04T14:58:53.232Z,31.00
2023-09-04T15:01:22.362Z,31.00
2023-09-04T15:03:50.535Z,32.00
2023-09-04T15:06:18.033Z,31.50
2023-09-04T15:08:45.159Z,31.50
2023-09-04T15:11:15.101Z,31.00
2023-09-04T15:13:46.878Z,33.00
2023-09-04T15:16:14.077Z,31.00
2023-09-04T15:18:41.155Z,31.00
2023-09-04T15:21:10.192Z,32.25
2023-09-04T15:23:37.429Z,31.50
2023-09-04T15:26:04.375Z,31.00
2023-09-04T15:28:31.435Z,31.00
2023-09-04T15:30:58.658Z,34.00
2023-09-04T15:33:28.814Z,33.00
2023-09-04T15:35:57.618Z,33.00
2023-09-04T15:38:25.450Z,34.25
2023-09-04T15:40:54.263Z,33.00
2023-09-04T15:43:21.824Z,32.00
2023-09-04T15:45:50.603Z,32.25
2023-09-04T15:48:17.772Z,31.75
2023-09-04T15:50:44.892Z,31.00
2023-09-04T15:53:11.785Z,30.00
2023-09-04T15:55:38.758Z,30.00
2023-09-04T15:58:05.710Z,30.75
2023-09-04T16:00:34.127Z,31.00
2023-09-04T16:03:02.159Z,32.00
2023-09-04T16:05:29.238Z,31.00
2023-09-04T16:07:56.181Z,31.00
2023-09-04T16:10:23.286Z,31.00
2023-09-04T16:12:50.229Z,30.50
2023-09-04T16:15:18.021Z,30.00
2023-09-04T16:17:45.729Z,29.00
2023-09-04T16:20:12.832Z,29.25
2023-09-04T16:22:39.723Z,29.00
2023-09-04T16:25:07.418Z,28.50
2023-09-04T16:27:34.518Z,28.00
2023-09-04T16:30:01.553Z,27.75
2023-09-04T16:32:29.184Z,29.00
2023-09-04T16:34:56.528Z,29.00
2023-09-04T16:37:23.731Z,29.00
2023-09-04T16:39:50.933Z,29.00
2023-09-04T16:42:18.075Z,29.00
2023-09-04T16:44:45.418Z,30.75
2023-09-04T16:47:12.685Z,30.50
2023-09-04T16:49:39.809Z,30.00
2023-09-04T16:52:07.364Z,31.00
2023-09-04T16:54:34.556Z,30.50
2023-09-04T16:57:01.621Z,30.00
2023-09-04T16:59:29.356Z,32.00
2023-09-04T17:01:56.424Z,32.00
2023-09-04T17:04:24.000Z,30.25
2023-09-04T17:06:51.092Z,30.00
2023-09-04T17:09:18.106Z,30.00
2023-09-04T17:11:45.136Z,30.00
2023-09-04T17:14:12.222Z,29.75
2023-09-04T17:16:39.583Z,29.00
2023-09-04T17:19:06.823Z,29.25
2023-09-04T17:21:33.794Z,30.00
2023-09-04T17:24:02.689Z,30.50
2023-09-04T17:26:29.832Z,33.00
2023-09-04T17:28:57.908Z,32.00
2023-09-04T17:31:25.753Z,30.00
2023-09-04T17:33:52.756Z,32.00
2023-09-04T17:36:19.634Z,31.00
2023-09-04T17:38:46.813Z,30.00
2023-09-04T17:41:13.911Z,32.00
2023-09-04T17:43:41.015Z,31.00
2023-09-04T17:46:12.016Z,30.00
2023-09-04T17:48:39.558Z,30.00
2023-09-04T17:51:06.495Z,29.00
2023-09-04T17:53:35.247Z,30.00
2023-09-04T17:56:02.204Z,29.00
2023-09-04T17:58:29.219Z,29.00
2023-09-04T18:00:56.642Z,29.00
2023-09-04T18:03:23.671Z,30.00
2023-09-04T18:05:50.640Z,30.00
2023-09-04T18:08:17.686Z,31.50
2023-09-04T18:10:44.819Z,32.00
2023-09-04T18:13:11.768Z,30.50
2023-09-04T18:15:38.664Z,32.00
2023-09-04T18:18:05.904Z,30.00
2023-09-04T18:20:32.898Z,32.00
2023-09-04T18:23:01.000Z,31.00
2023-09-04T18:25:27.999Z,30.75
2023-09-04T18:27:55.084Z,32.00
2023-09-04T18:30:22.038Z,31.00
2023-09-04T18:32:49.115Z,30.00
2023-09-04T18:35:16.077Z,31.00
2023-09-04T18:37:43.094Z,30.00
2023-09-04T18:40:10.350Z,30.00
2023-09-04T18:42:37.594Z,29.00
2023-09-04T18:45:04.942Z,30.00
2023-09-04T18:47:31.962Z,31.00
2023-09-04T18:49:58.986Z,30.50
2023-09-04T18:52:25.979Z,32.00
2023-09-04T18:54:52.895Z,31.75
2023-09-04T18:57:20.687Z,32.00
2023-09-04T18:59:47.593Z,32.00
2023-09-04T19:02:14.652Z,30.00
2023-09-04T19:04:42.301Z,30.25
2023-09-04T19:07:10.121Z,32.00
2023-09-04T19:09:37.610Z,31.00
2023-09-04T19:12:05.083Z,29.50
2023-09-04T19:14:32.023Z,30.00
2023-09-04T19:16:59.147Z,30.00
2023-09-04T19:19:26.044Z,30.00
2023-09-04T19:21:53.009Z,30.00
2023-09-04T19:24:19.911Z,30.00
2023-09-04T19:26:46.947Z,30.00
2023-09-04T19:29:13.800Z,29.00
2023-09-04T19:31:40.825Z,29.50
2023-09-04T19:34:07.680Z,30.00
2023-09-04T19:36:34.687Z,29.00
2023-09-04T19:39:01.856Z,30.00
2023-09-04T19:41:28.924Z,30.00
2023-09-04T19:43:56.018Z,30.00
2023-09-04T19:46:23.187Z,30.00
2023-09-04T19:48:50.147Z,31.00
2023-09-04T19:51:17.067Z,30.00
2023-09-04T19:53:43.983Z,30.00
2023-09-04T19:56:10.985Z,30.00
2023-09-04T19:58:38.098Z,30.00
2023-09-04T20:01:05.529Z,29.00
2023-09-04T20:03:33.507Z,28.25
2023-09-04T20:06:00.600Z,28.00
2023-09-04T20:08:27.726Z,29.00
2023-09-04T20:10:54.906Z,29.75
2023-09-04T20:13:23.968Z,29.00
2023-09-04T20:15:51.038Z,30.00
2023-09-04T20:18:18.035Z,30.00
2023-09-04T20:20:44.953Z,29.00
2023-09-04T20:23:11.845Z,28.00
2023-09-04T20:25:38.929Z,29.00
2023-09-04T20:28:05.977Z,30.00
2023-09-04T20:30:32.871Z,30.00
2023-09-04T20:32:59.869Z,30.00
2023-09-04T20:35:26.921Z,30.00
2023-09-04T20:37:54.008Z,29.00
2023-09-04T20:40:20.947Z,28.00
2023-09-04T20:42:47.880Z,29.50
2023-09-04T20:45:15.172Z,29.50
2023-09-04T20:47:42.146Z,30.00
2023-09-04T20:50:09.745Z,30.00
2023-09-04T20:52:37.129Z,30.00
2023-09-04T20:55:04.401Z,32.00
2023-09-04T20:57:31.273Z,30.00
2023-09-04T20:59:58.378Z,30.00
2023-09-04T21:02:25.401Z,29.00
2023-09-04T21:04:52.511Z,30.00
2023-09-04T21:07:19.679Z,29.00
2023-09-04T21:09:46.719Z,30.50
2023-09-04T21:12:13.619Z,31.00
2023-09-04T21:14:40.669Z,30.00
2023-09-04T21:17:07.614Z,31.00
2023-09-04T21:19:34.605Z,31.00
2023-09-04T21:22:01.555Z,31.00
2023-09-04T21:24:28.748Z,31.00
2023-09-04T21:26:55.679Z,29.00
2023-09-04T21:29:22.625Z,30.00
2023-09-04T21:31:49.544Z,30.00
2023-09-04T21:34:16.587Z,30.00
2023-09-04T21:36:43.460Z,29.00
2023-09-04T21:39:10.723Z,30.00
2023-09-04T21:41:37.668Z,30.00
2023-09-04T21:44:04.846Z,30.00
2023-09-04T21:46:31.782Z,29.00
2023-09-04T21:48:58.810Z,29.75
2023-09-04T21:51:25.721Z,29.00
2023-09-04T21:53:52.783Z,30.00
2023-09-04T21:56:19.623Z,31.50
2023-09-04T21:58:46.588Z,33.00
2023-09-04T22:01:13.528Z,32.00
2023-09-04T22:03:40.680Z,31.00
2023-09-04T22:06:07.705Z,30.00
2023-09-04T22:08:34.639Z,29.00
2023-09-04T22:11:01.616Z,29.00
2023-09-04T22:13:28.591Z,29.00
2023-09-04T22:15:55.495Z,29.00
2023-09-04T22:18:25.238Z,28.00
2023-09-04T22:20:52.124Z,29.25
2023-09-04T22:23:19.011Z,29.25
2023-09-04T22:25:45.926Z,29.00
2023-09-04T22:28:13.128Z,29.00
2023-09-04T22:30:40.039Z,30.50
2023-09-04T22:33:06.985Z,31.00
2023-09-04T22:35:33.906Z,30.00
2023-09-04T22:38:00.876Z,30.00
2023-09-04T22:40:28.048Z,30.00
2023-09-04T22:42:55.115Z,29.00
2023-09-04T22:45:21.979Z,30.25
2023-09-04T22:47:48.864Z,30.25
2023-09-04T22:50:15.918Z,30.00
2023-09-04T22:52:49.624Z,29.50
2023-09-04T22:55:23.336Z,32.00
2023-09-04T22:57:50.248Z,31.00
2023-09-04T23:00:17.263Z,29.00
2023-09-04T23:02:44.210Z,29.00
2023-09-04T23:05:12.382Z,29.00
2023-09-04T23:07:39.227Z,28.75
2023-09-04T23:10:06.603Z,31.00
2023-09-04T23:12:33.498Z,30.00
2023-09-04T23:15:00.740Z,29.00
2023-09-04T23:17:27.690Z,30.25
2023-09-04T23:19:54.700Z,31.00
2023-09-04T23:22:21.537Z,31.00
2023-09-04T23:24:48.526Z,30.00
2023-09-04T23:27:15.519Z,29.00
2023-09-04T23:29:42.555Z,29.00
2023-09-04T23:32:10.729Z,29.50
2023-09-04T23:34:39.498Z,29.00
2023-09-04T23:37:07.073Z,29.00
2023-09-04T23:39:34.064Z,30.00
2023-09-04T23:42:02.645Z,29.75
2023-09-04T23:44:29.738Z,30.00
2023-09-04T23:46:56.684Z,30.75
2023-09-04T23:49:23.651Z,29.50
2023-09-04T23:51:50.539Z,30.00
2023-09-04T23:54:17.563Z,30.00
2023-09-04T23:56:44.462Z,29.75
2023-09-04T23:59:11.419Z,29.00
